Time;durP1;ratioP1;P1;durP2;ratioP2;P2;SDS_P1;SDS_P2;PMS_P1;PMS_P2;Temp;Humidity;BMP_temperature;BMP_pressure;BME280_temperature;BME280_humidity;BME280_pressure;Samples;Min_cycle;Max_cycle;Signal;HPM_P1;HPM_P2
2022/08/21 07:59:46;;;;;;;1.50;0.90;;;;;;;;;;6273694;22;21297;31
2022/08/21 08:02:28;;;;;;;1.20;1.05;;;;;;;;;;6278174;22;20349;-75
2022/08/21 08:04:54;;;;;;;1.08;0.98;;;;;;;;;;6278575;22;20000;-75
2022/08/21 08:07:19;;;;;;;1.00;0.90;;;;;;;;;;6278995;22;20007;-75
2022/08/21 08:09:45;;;;;;;1.40;1.23;;;;;;;;;;6291966;22;20004;-76
2022/08/21 08:12:12;;;;;;;2.35;0.90;;;;;;;;;;6309796;22;20475;-76
2022/08/21 08:14:37;;;;;;;0.93;0.90;;;;;;;;;;6309403;22;20000;-75
2022/08/21 08:17:03;;;;;;;1.08;1.00;;;;;;;;;;6309441;22;20010;-75
2022/08/21 08:19:28;;;;;;;0.85;0.85;;;;;;;;;;6309087;22;20425;-79
2022/08/21 08:21:54;;;;;;;1.25;1.20;;;;;;;;;;6309172;22;20006;-75
2022/08/21 08:24:20;;;;;;;1.35;0.90;;;;;;;;;;6309267;22;20077;-79
2022/08/21 08:26:46;;;;;;;2.17;0.73;;;;;;;;;;6281406;22;20013;-75
2022/08/21 08:29:12;;;;;;;1.27;1.00;;;;;;;;;;6309222;22;20074;-75
2022/08/21 08:31:38;;;;;;;1.10;1.00;;;;;;;;;;6309220;22;20374;-76
2022/08/21 08:34:03;;;;;;;1.13;1.05;;;;;;;;;;6309059;22;20003;-74
2022/08/21 08:36:36;;;;;;;1.33;0.90;;;;;;;;;;6309090;22;20018;-75
2022/08/21 08:39:04;;;;;;;2.08;0.90;;;;;;;;;;6309358;22;20318;-78
2022/08/21 08:41:30;;;;;;;1.15;0.90;;;;;;;;;;6309268;22;19999;-77
2022/08/21 08:44:01;;;;;;;1.23;0.82;;;;;;;;;;6308754;22;20007;-77
2022/08/21 08:46:43;;;;;;;0.80;0.80;;;;;;;;;;6308905;22;20414;-75
2022/08/21 08:49:29;;;;;;;1.00;1.00;;;;;;;;;;6308990;22;20489;-77
2022/08/21 08:52:06;;;;;;;1.27;0.90;;;;;;;;;;6308889;22;20367;-76
2022/08/21 08:54:38;;;;;;;1.00;1.00;;;;;;;;;;6308888;22;20064;-80
2022/08/21 08:57:09;;;;;;;1.52;0.77;;;;;;;;;;6308858;22;20074;-76
2022/08/21 08:59:47;;;;;;;1.50;0.75;;;;;;;;;;6308777;22;20003;-78
2022/08/21 09:02:15;;;;;;;0.95;0.88;;;;;;;;;;6309215;22;20322;-77
2022/08/21 09:04:42;;;;;;;1.20;0.88;;;;;;;;;;6309177;22;20003;-78
2022/08/21 09:07:22;;;;;;;0.88;0.70;;;;;;;;;;6309018;22;20003;-76
2022/08/21 09:10:03;;;;;;;0.85;0.85;;;;;;;;;;6308569;22;20030;-76
2022/08/21 09:12:46;;;;;;;0.80;0.80;;;;;;;;;;6308812;22;20000;-77
2022/08/21 09:15:32;;;;;;;2.05;0.80;;;;;;;;;;6309361;22;20034;-76
2022/08/21 09:18:07;;;;;;;0.70;0.70;;;;;;;;;;6308700;22;20077;-76
2022/08/21 09:21:04;;;;;;;0.85;0.85;;;;;;;;;;6308959;22;20025;-75
2022/08/21 09:23:43;;;;;;;0.90;0.57;;;;;;;;;;6308847;22;20003;-76
2022/08/21 09:26:14;;;;;;;0.77;0.77;;;;;;;;;;6308770;22;20010;-76
2022/08/21 09:28:41;;;;;;;0.70;0.70;;;;;;;;;;6308747;22;20006;-78
2022/08/21 09:31:15;;;;;;;0.52;0.52;;;;;;;;;;6308698;22;20372;-76
2022/08/21 09:33:41;;;;;;;0.77;0.73;;;;;;;;;;6308284;22;19999;-77
2022/08/21 09:36:06;;;;;;;1.65;0.60;;;;;;;;;;6309126;22;20000;-78
2022/08/21 09:38:36;;;;;;;0.75;0.70;;;;;;;;;;6308527;22;20007;-76
2022/08/21 09:41:03;;;;;;;1.17;0.70;;;;;;;;;;6308454;22;20074;-77
2022/08/21 09:43:29;;;;;;;1.00;0.90;;;;;;;;;;6308544;22;20311;-77
2022/08/21 09:46:04;;;;;;;0.68;0.60;;;;;;;;;;6308417;22;20003;-78
2022/08/21 09:48:37;;;;;;;0.77;0.70;;;;;;;;;;6308561;22;19999;-77
2022/08/21 09:51:09;;;;;;;0.60;0.60;;;;;;;;;;6281098;22;20329;-79
2022/08/21 09:53:42;;;;;;;0.55;0.55;;;;;;;;;;6309385;22;20003;-77
2022/08/21 09:59:31;;;;;;;0.60;0.60;;;;;;;;;;6308741;22;20014;-79
2022/08/21 10:02:01;;;;;;;0.75;0.75;;;;;;;;;;6308299;22;20105;-81
2022/08/21 10:04:32;;;;;;;0.88;0.68;;;;;;;;;;6308312;22;20011;-80
2022/08/21 10:07:14;;;;;;;1.52;0.65;;;;;;;;;;6308663;22;20003;-80
2022/08/21 10:09:41;;;;;;;1.58;0.63;;;;;;;;;;6308176;22;19999;-76
2022/08/21 10:12:32;;;;;;;0.70;0.70;;;;;;;;;;6308446;22;20003;-81
2022/08/21 10:15:07;;;;;;;0.70;0.60;;;;;;;;;;6308553;22;20418;-77
2022/08/21 10:17:52;;;;;;;1.73;1.08;;;;;;;;;;6308309;22;20031;-81
2022/08/21 10:20:27;;;;;;;1.58;0.82;;;;;;;;;;6276159;22;20011;-84
2022/08/21 10:23:05;;;;;;;0.80;0.80;;;;;;;;;;6308297;22;20100;-77
2022/08/21 10:25:40;;;;;;;0.93;0.65;;;;;;;;;;6308357;22;20030;-77
2022/08/21 10:28:11;;;;;;;0.73;0.70;;;;;;;;;;6308167;22;20017;-77
2022/08/21 10:30:41;;;;;;;0.60;0.60;;;;;;;;;;6308139;22;20003;-76
2022/08/21 10:33:16;;;;;;;0.60;0.60;;;;;;;;;;6308439;22;20035;-78
2022/08/21 10:36:00;;;;;;;0.60;0.60;;;;;;;;;;6280511;22;20007;-79
2022/08/21 10:38:44;;;;;;;0.60;0.60;;;;;;;;;;6307907;22;20433;-79
2022/08/21 10:41:38;;;;;;;0.90;0.60;;;;;;;;;;6307827;22;20011;-80
2022/08/21 10:44:40;;;;;;;0.63;0.63;;;;;;;;;;6307823;22;20007;-79
2022/08/21 10:47:13;;;;;;;6.10;0.85;;;;;;;;;;6280544;22;20023;-78
2022/08/21 10:50:03;;;;;;;2.55;0.90;;;;;;;;;;6307986;22;20010;-81
2022/08/21 10:52:50;;;;;;;5.38;1.30;;;;;;;;;;6307815;22;19999;-80
2022/08/21 10:55:21;;;;;;;0.70;0.70;;;;;;;;;;6308015;22;20003;-81
2022/08/21 10:57:56;;;;;;;1.75;0.80;;;;;;;;;;6307821;22;20445;-81
2022/08/21 11:00:27;;;;;;;4.10;0.80;;;;;;;;;;6307677;22;20048;-79
2022/08/21 11:03:17;;;;;;;1.50;0.43;;;;;;;;;;6281433;22;20460;-79
2022/08/21 11:05:53;;;;;;;0.77;0.50;;;;;;;;;;6307982;22;20437;-80
2022/08/21 11:08:31;;;;;;;0.75;0.52;;;;;;;;;;6308037;22;20000;-80
2022/08/21 11:11:08;;;;;;;1.57;0.60;;;;;;;;;;6307796;22;20360;-80
2022/08/21 11:13:53;;;;;;;1.70;0.70;;;;;;;;;;6308137;22;20010;-81
2022/08/21 11:16:36;;;;;;;0.70;0.70;;;;;;;;;;6308260;22;20006;-81
2022/08/21 11:19:42;;;;;;;0.68;0.68;;;;;;;;;;6307770;22;20365;-80
2022/08/21 11:22:34;;;;;;;0.90;0.68;;;;;;;;;;6308122;22;20386;-78
2022/08/21 11:25:10;;;;;;;1.85;0.60;;;;;;;;;;6307960;22;20082;-80
2022/08/21 11:27:45;;;;;;;0.68;0.50;;;;;;;;;;6308127;22;20045;-79
2022/08/21 11:30:11;;;;;;;0.98;0.70;;;;;;;;;;6307014;22;20023;-81
2022/08/21 11:33:21;;;;;;;0.50;0.45;;;;;;;;;;6307431;22;20314;-82
2022/08/21 11:36:19;;;;;;;2.78;1.08;;;;;;;;;;6272347;22;20434;-77
2022/08/21 11:38:53;;;;;;;;;;;;;;;;;;6307898;22;19999;-78
2022/08/21 11:41:33;;;;;;;0.98;0.98;;;;;;;;;;6307963;22;19913;-81
2022/08/21 11:44:37;;;;;;;0.80;0.80;;;;;;;;;;6307695;22;20099;-78
2022/08/21 11:47:13;;;;;;;2.75;1.00;;;;;;;;;;6274842;22;20003;-81
2022/08/21 11:49:49;;;;;;;1.75;0.98;;;;;;;;;;6308008;22;20364;-78
2022/08/21 11:52:35;;;;;;;0.80;0.77;;;;;;;;;;6307741;22;20171;-78
2022/08/21 11:55:18;;;;;;;0.80;0.80;;;;;;;;;;6307009;22;20002;-79
2022/08/21 11:58:12;;;;;;;1.00;1.00;;;;;;;;;;6283194;22;19999;-78
2022/08/21 12:00:52;;;;;;;1.13;0.90;;;;;;;;;;6309024;22;20383;-80
2022/08/21 12:03:32;;;;;;;0.68;0.68;;;;;;;;;;6309086;22;20018;-81
2022/08/21 12:05:59;;;;;;;0.73;0.65;;;;;;;;;;6309708;22;20473;-80
2022/08/21 12:08:34;;;;;;;0.93;0.90;;;;;;;;;;6309467;22;20326;-77
2022/08/21 12:11:05;;;;;;;1.30;0.77;;;;;;;;;;6309693;22;20378;-79
2022/08/21 12:13:34;;;;;;;1.58;0.90;;;;;;;;;;6309294;22;20330;-79
2022/08/21 12:16:27;;;;;;;0.50;0.50;;;;;;;;;;6309440;22;20006;-80
2022/08/21 12:19:06;;;;;;;1.85;0.73;;;;;;;;;;6309192;22;20331;-80
2022/08/21 12:21:32;;;;;;;0.77;0.77;;;;;;;;;;6309161;22;20018;-81
2022/08/21 12:24:13;;;;;;;0.70;0.70;;;;;;;;;;6309594;22;20014;-81
2022/08/21 12:27:12;;;;;;;1.38;0.50;;;;;;;;;;6309280;22;20022;-81
2022/08/21 12:29:38;;;;;;;0.70;0.70;;;;;;;;;;6307743;22;20003;-81
2022/08/21 12:32:24;;;;;;;0.85;0.60;;;;;;;;;;6309057;22;19999;-81
2022/08/21 12:34:55;;;;;;;0.80;0.80;;;;;;;;;;6309154;22;20038;-81
2022/08/21 12:37:23;;;;;;;0.80;0.80;;;;;;;;;;6309456;22;19996;-79
2022/08/21 12:39:51;;;;;;;;;;;;;;;;;;6309700;22;20334;-81
2022/08/21 12:42:22;;;;;;;;;;;;;;;;;;6310230;22;19903;-80
2022/08/21 12:44:58;;;;;;;1.38;0.75;;;;;;;;;;6309068;22;19910;-81
2022/08/21 12:47:33;;;;;;;0.70;0.70;;;;;;;;;;6309867;22;20296;-81
2022/08/21 12:50:07;;;;;;;0.70;0.70;;;;;;;;;;6281559;22;20007;-79
2022/08/21 12:52:36;;;;;;;0.80;0.80;;;;;;;;;;6308992;22;20056;-80
2022/08/21 12:55:03;;;;;;;0.65;0.65;;;;;;;;;;6309115;22;20014;-80
2022/08/21 12:57:30;;;;;;;0.70;0.70;;;;;;;;;;6308785;22;19999;-81
2022/08/21 13:00:01;;;;;;;0.85;0.60;;;;;;;;;;6308712;22;20034;-81
2022/08/21 13:02:30;;;;;;;1.67;0.90;;;;;;;;;;6308814;22;20010;-83
2022/08/21 13:04:57;;;;;;;0.60;0.60;;;;;;;;;;6309050;22;20000;-82
2022/08/21 13:07:30;;;;;;;0.90;0.90;;;;;;;;;;6308727;22;19999;-81
2022/08/21 13:10:07;;;;;;;0.70;0.70;;;;;;;;;;6308664;22;20357;-82
2022/08/21 13:12:35;;;;;;;0.73;0.73;;;;;;;;;;6309238;22;20007;-83
2022/08/21 13:15:05;;;;;;;0.60;0.60;;;;;;;;;;6308972;22;20007;-82
2022/08/21 13:17:34;;;;;;;1.95;0.82;;;;;;;;;;6308872;22;20422;-81
2022/08/21 13:20:04;;;;;;;0.68;0.60;;;;;;;;;;6308770;22;20042;-82
2022/08/21 13:22:30;;;;;;;0.50;0.50;;;;;;;;;;6308816;22;20323;-83
2022/08/21 13:24:55;;;;;;;0.68;0.63;;;;;;;;;;6309122;22;20007;-83
2022/08/21 13:27:29;;;;;;;0.50;0.50;;;;;;;;;;6309186;22;19999;-85
2022/08/21 13:30:09;;;;;;;0.80;0.80;;;;;;;;;;6308988;22;19996;-84
2022/08/21 13:32:40;;;;;;;0.55;0.55;;;;;;;;;;6309134;22;20019;-83
2022/08/21 13:35:31;;;;;;;0.63;0.60;;;;;;;;;;6308619;22;20000;-85
2022/08/21 13:37:58;;;;;;;1.05;0.70;;;;;;;;;;6308979;22;20003;-84
2022/08/21 13:40:38;;;;;;;1.27;0.60;;;;;;;;;;6308739;22;20453;-84
2022/08/21 13:43:03;;;;;;;0.45;0.45;;;;;;;;;;6308502;22;19999;-81
2022/08/21 13:45:32;;;;;;;0.60;0.60;;;;;;;;;;6308718;22;20003;-81
2022/08/21 13:48:01;;;;;;;0.50;0.50;;;;;;;;;;6308931;22;20006;-80
2022/08/21 13:50:27;;;;;;;0.82;0.40;;;;;;;;;;6281201;22;20418;-80
2022/08/21 13:52:55;;;;;;;0.45;0.40;;;;;;;;;;6308804;22;20064;-87
2022/08/21 13:55:21;;;;;;;0.55;0.55;;;;;;;;;;6308821;22;19999;-87
2022/08/21 13:57:46;;;;;;;0.50;0.50;;;;;;;;;;6308737;22;20003;-86
2022/08/21 14:00:34;;;;;;;0.63;0.30;;;;;;;;;;6308404;22;20041;-85
2022/08/21 14:03:09;;;;;;;0.40;0.40;;;;;;;;;;6308549;22;20014;-87
2022/08/21 14:05:42;;;;;;;0.50;0.50;;;;;;;;;;6308699;22;20433;-87
2022/08/21 16:24:23;;;;;;;0.40;0.40;;;;;;;;;;6336554;22;20010;-79
2022/08/21 16:26:49;;;;;;;0.40;0.40;;;;;;;;;;6338881;22;20029;-77
2022/08/21 16:29:15;;;;;;;0.40;0.40;;;;;;;;;;6340591;22;20056;-79
2022/08/21 16:31:41;;;;;;;0.60;0.60;;;;;;;;;;6340559;22;20026;-79
2022/08/21 16:34:06;;;;;;;2.22;0.43;;;;;;;;;;6340727;22;20410;-79
2022/08/21 16:36:32;;;;;;;1.30;0.50;;;;;;;;;;6340410;22;20310;-79
2022/08/21 16:38:59;;;;;;;1.63;0.60;;;;;;;;;;6340555;22;20356;-79
2022/08/21 16:41:30;;;;;;;1.15;0.50;;;;;;;;;;6340181;22;20493;-79
2022/08/21 16:43:55;;;;;;;1.30;0.50;;;;;;;;;;6340325;22;20010;-80
2022/08/21 16:46:21;;;;;;;0.50;0.50;;;;;;;;;;6340656;22;19998;-79
2022/08/21 16:48:48;;;;;;;0.85;0.50;;;;;;;;;;6340444;22;20440;-80
2022/08/21 16:51:15;;;;;;;0.40;0.40;;;;;;;;;;6338638;22;20052;-80
2022/08/21 16:53:41;;;;;;;0.60;0.30;;;;;;;;;;6340383;22;19999;-79
2022/08/21 16:56:09;;;;;;;2.28;0.30;;;;;;;;;;6340796;22;20025;-84
2022/08/21 16:58:36;;;;;;;1.60;0.52;;;;;;;;;;6340331;22;19999;-80
2022/08/21 17:01:09;;;;;;;2.30;0.50;;;;;;;;;;6340163;22;20070;-78
2022/08/21 17:03:42;;;;;;;0.43;0.43;;;;;;;;;;6340303;22;20003;-78
2022/08/21 17:06:08;;;;;;;0.60;0.60;;;;;;;;;;6338424;22;20002;-79
2022/08/21 17:08:34;;;;;;;1.27;0.40;;;;;;;;;;6340054;22;20356;-77
2022/08/21 17:11:01;;;;;;;0.60;0.60;;;;;;;;;;6340531;22;20006;-77
2022/08/21 17:13:26;;;;;;;0.47;0.47;;;;;;;;;;6340159;22;20376;-77
2022/08/21 17:15:52;;;;;;;2.50;0.43;;;;;;;;;;6340173;22;19999;-77
2022/08/21 17:18:21;;;;;;;1.08;0.57;;;;;;;;;;6339962;22;20009;-77
2022/08/21 17:20:47;;;;;;;0.60;0.57;;;;;;;;;;6338283;22;19999;-78
2022/08/21 17:23:14;;;;;;;2.65;0.90;;;;;;;;;;6345765;22;20010;-77
2022/08/21 17:25:45;;;;;;;0.60;0.43;;;;;;;;;;6371619;22;20002;-78
2022/08/21 17:28:14;;;;;;;0.47;0.45;;;;;;;;;;6372161;22;19999;-78
2022/08/21 17:30:44;;;;;;;0.65;0.50;;;;;;;;;;6372040;22;20041;-79
2022/08/21 17:33:12;;;;;;;1.67;0.50;;;;;;;;;;6372080;22;20009;-79
2022/08/21 19:38:05;;;;;;;0.90;0.90;;;;;;;;;;6346445;22;20083;-79
2022/08/21 19:40:30;;;;;;;1.55;0.80;;;;;;;;;;6337823;22;20011;-78
2022/08/21 19:42:56;;;;;;;2.45;1.10;;;;;;;;;;6338592;22;20038;-79
2022/08/21 19:45:22;;;;;;;1.95;0.90;;;;;;;;;;6338892;22;20364;-78
2022/08/21 19:47:49;;;;;;;1.35;0.95;;;;;;;;;;6338760;22;20003;-78
2022/08/21 19:50:15;;;;;;;0.90;0.90;;;;;;;;;;6338917;22;20060;-80
2022/08/21 19:52:41;;;;;;;1.05;0.80;;;;;;;;;;6338803;22;20002;-79
2022/08/21 19:55:08;;;;;;;0.80;0.80;;;;;;;;;;6338893;22;20003;-80
2022/08/21 19:57:34;;;;;;;0.80;0.80;;;;;;;;;;6338661;22;19999;-81
2022/08/21 20:00:00;;;;;;;1.77;0.85;;;;;;;;;;6339205;22;20010;-79
2022/08/21 20:02:25;;;;;;;0.70;0.70;;;;;;;;;;6339239;22;20307;-78
2022/08/21 20:04:51;;;;;;;1.05;0.75;;;;;;;;;;6338346;22;20031;-80
2022/08/21 20:07:16;;;;;;;0.73;0.70;;;;;;;;;;6338997;22;20089;-80
2022/08/21 20:09:43;;;;;;;1.17;0.90;;;;;;;;;;6339053;22;20329;-81
2022/08/21 20:12:13;;;;;;;0.75;0.70;;;;;;;;;;6338863;22;19998;-78
2022/08/21 20:14:45;;;;;;;1.58;1.00;;;;;;;;;;6338426;22;20444;-78
2022/08/21 20:17:12;;;;;;;1.08;0.98;;;;;;;;;;6338723;22;19998;-78
2022/08/21 20:19:39;;;;;;;3.28;1.08;;;;;;;;;;6340569;22;20048;-79
2022/08/21 20:22:05;;;;;;;2.72;0.90;;;;;;;;;;6340617;22;19999;-79
2022/08/21 20:24:32;;;;;;;1.58;0.80;;;;;;;;;;6340325;22;20343;-78
2022/08/21 20:26:58;;;;;;;0.98;0.70;;;;;;;;;;6340728;22;20389;-80
2022/08/21 20:29:25;;;;;;;1.13;0.85;;;;;;;;;;6340630;22;19998;-78
2022/08/21 20:31:50;;;;;;;1.52;0.80;;;;;;;;;;6340238;22;19998;-78
2022/08/21 20:34:16;;;;;;;1.73;0.80;;;;;;;;;;6340542;22;20418;-81
2022/08/21 20:36:41;;;;;;;0.95;0.88;;;;;;;;;;6340188;22;20399;-79
2022/08/21 20:39:07;;;;;;;1.30;0.77;;;;;;;;;;6355338;22;20020;-79
2022/08/21 20:41:33;;;;;;;1.60;1.00;;;;;;;;;;6372077;22;20030;-78
2022/08/21 20:43:59;;;;;;;0.88;0.80;;;;;;;;;;6344298;22;20006;-78
2022/08/21 20:46:27;;;;;;;1.33;0.80;;;;;;;;;;6371878;22;20006;-80
2022/08/21 20:48:53;;;;;;;0.70;0.70;;;;;;;;;;6372474;22;20081;-79
2022/08/21 20:51:39;;;;;;;1.45;0.90;;;;;;;;;;6371853;22;20329;-79
2022/08/21 20:54:48;;;;;;;1.13;1.00;;;;;;;;;;6372188;22;19999;-79
2022/08/21 20:57:20;;;;;;;1.92;1.67;;;;;;;;;;6372352;22;20081;-78
2022/08/21 20:59:52;;;;;;;1.27;1.00;;;;;;;;;;6371781;22;19999;-78
2022/08/21 21:02:26;;;;;;;1.30;1.02;;;;;;;;;;6344451;22;20090;-78
2022/08/21 21:05:14;;;;;;;2.95;1.13;;;;;;;;;;6371693;22;20002;-78
2022/08/21 21:08:05;;;;;;;1.70;1.42;;;;;;;;;;6371689;22;19998;-78
2022/08/21 21:10:45;;;;;;;2.30;1.00;;;;;;;;;;6371804;22;20028;-78
2022/08/21 21:13:19;;;;;;;1.13;1.02;;;;;;;;;;6371844;22;20059;-78
2022/08/21 21:15:50;;;;;;;1.55;0.75;;;;;;;;;;6371649;22;20604;-78
2022/08/21 21:18:31;;;;;;;3.17;1.20;;;;;;;;;;6371660;22;20425;-77
2022/08/21 21:21:08;;;;;;;1.10;0.90;;;;;;;;;;6371705;22;20081;-78
2022/08/21 21:23:45;;;;;;;1.13;0.85;;;;;;;;;;6343757;22;20383;-77
2022/08/21 21:26:25;;;;;;;1.38;0.77;;;;;;;;;;6371502;22;20433;-78
2022/08/21 21:28:57;;;;;;;2.28;1.13;;;;;;;;;;6371643;22;20006;-78
2022/08/21 21:31:27;;;;;;;1.00;0.90;;;;;;;;;;6371875;22;20073;-78
2022/08/21 21:33:53;;;;;;;1.10;1.00;;;;;;;;;;6372109;22;20067;-78
2022/08/21 21:36:29;;;;;;;1.00;0.90;;;;;;;;;;6343552;22;20486;-78
2022/08/21 21:38:57;;;;;;;1.00;0.85;;;;;;;;;;6371456;22;20014;-78
2022/08/21 21:41:47;;;;;;;1.45;1.20;;;;;;;;;;6371570;22;19998;-78
2022/08/21 21:44:25;;;;;;;0.98;0.88;;;;;;;;;;6371496;22;20329;-77
2022/08/21 21:47:06;;;;;;;0.80;0.63;;;;;;;;;;6371494;22;20002;-77
2022/08/21 21:49:56;;;;;;;1.65;0.90;;;;;;;;;;6371343;22;20328;-77
2022/08/21 21:52:42;;;;;;;0.90;0.70;;;;;;;;;;6371406;22;19998;-78
2022/08/21 21:55:36;;;;;;;1.10;0.85;;;;;;;;;;6371052;22;20003;-77
2022/08/21 21:58:34;;;;;;;0.75;0.70;;;;;;;;;;6371308;22;19998;-79
2022/08/21 22:01:29;;;;;;;1.70;1.10;;;;;;;;;;6371514;22;20025;-80
2022/08/21 22:04:14;;;;;;;1.55;1.40;;;;;;;;;;6343138;22;19998;-80
